createdAt,value
2017-11-27T00:00:14.307Z,80.30
2017-11-27T00:02:42.741Z,80.40
2017-11-27T00:05:11.072Z,80.50
2017-11-27T00:07:40.214Z,81.50
2017-11-27T00:10:08.545Z,80.60
2017-11-27T00:12:37.673Z,80.90
2017-11-27T00:15:06.052Z,80.90
2017-11-27T00:17:34.563Z,81.00
2017-11-27T00:20:02.915Z,81.00
2017-11-27T00:22:41.086Z,80.90
2017-11-27T00:25:10.236Z,81.50
2017-11-27T00:27:38.571Z,80.70
2017-11-27T00:30:07.685Z,80.50
2017-11-27T00:32:36.022Z,80.50
2017-11-27T00:35:04.379Z,80.50
2017-11-27T00:37:32.728Z,80.40
2017-11-27T00:40:01.057Z,80.10
2017-11-27T00:42:29.516Z,80.00
2017-11-27T00:44:57.929Z,80.10
2017-11-27T00:47:27.050Z,80.50
2017-11-27T00:49:55.537Z,79.80
2017-11-27T00:52:23.877Z,79.70
2017-11-27T00:54:52.226Z,79.50
2017-11-27T00:57:20.561Z,79.30
2017-11-27T00:59:48.935Z,79.40
2017-11-27T01:02:18.045Z,79.60
2017-11-27T01:04:46.380Z,79.40
2017-11-27T01:07:14.810Z,79.50
2017-11-27T01:09:43.239Z,79.70
2017-11-27T01:12:11.585Z,79.70
2017-11-27T01:14:39.967Z,79.60
2017-11-27T01:17:08.347Z,79.60
2017-11-27T01:19:36.702Z,79.60
2017-11-27T01:22:05.055Z,79.50
2017-11-27T01:24:33.417Z,79.70
2017-11-27T01:27:01.844Z,79.00
2017-11-27T01:29:30.197Z,79.70
2017-11-27T01:31:59.420Z,79.80
2017-11-27T01:34:27.791Z,79.60
2017-11-27T01:36:56.169Z,79.90
2017-11-27T01:39:25.301Z,80.10
2017-11-27T01:41:53.731Z,80.00
2017-11-27T01:44:22.845Z,80.30
2017-11-27T01:46:51.203Z,80.20
2017-11-27T01:49:19.541Z,80.50
2017-11-27T01:51:48.010Z,80.60
2017-11-27T01:54:16.537Z,80.60
2017-11-27T01:56:45.933Z,80.70
2017-11-27T01:59:16.807Z,81.00
2017-11-27T02:01:45.318Z,81.00
2017-11-27T02:04:19.209Z,81.20
2017-11-27T02:06:47.551Z,81.60
2017-11-27T02:09:16.677Z,81.70
2017-11-27T02:11:45.046Z,81.70
2017-11-27T02:14:14.255Z,81.60
2017-11-27T02:16:42.609Z,81.50
2017-11-27T02:19:11.717Z,81.90
2017-11-27T02:21:40.197Z,81.90
2017-11-27T02:24:09.314Z,81.80
2017-11-27T02:26:37.700Z,81.90
2017-11-27T02:29:06.065Z,82.00
2017-11-27T02:31:34.443Z,81.70
2017-11-27T02:34:02.844Z,81.80
2017-11-27T02:36:31.191Z,81.70
2017-11-27T02:39:00.333Z,81.90
2017-11-27T02:41:28.676Z,81.90
2017-11-27T02:43:57.065Z,82.10
2017-11-27T02:46:26.344Z,83.10
2017-11-27T02:48:55.534Z,82.60
2017-11-27T02:51:24.656Z,82.70
2017-11-27T02:53:53.766Z,82.50
2017-11-27T02:56:22.304Z,82.50
2017-11-27T02:58:50.654Z,82.20
2017-11-27T03:01:19.021Z,82.20
2017-11-27T03:03:47.356Z,82.20
2017-11-27T03:06:16.473Z,82.30
2017-11-27T03:08:44.809Z,82.20
2017-11-27T03:11:13.220Z,82.30
2017-11-27T03:13:42.390Z,82.00
2017-11-27T03:16:10.764Z,81.90
2017-11-27T03:18:39.112Z,81.80
2017-11-27T03:21:07.449Z,81.40
2017-11-27T03:23:35.810Z,81.30
2017-11-27T03:26:04.930Z,81.70
2017-11-27T03:28:33.281Z,81.60
2017-11-27T03:31:01.625Z,81.70
2017-11-27T03:33:29.974Z,82.50
2017-11-27T03:35:58.329Z,81.60
2017-11-27T03:38:27.461Z,81.60
2017-11-27T03:40:55.816Z,81.60
2017-11-27T03:43:24.213Z,81.40
2017-11-27T03:45:52.631Z,81.60
2017-11-27T03:48:20.982Z,81.20
2017-11-27T03:50:49.377Z,81.10
2017-11-27T03:53:17.816Z,81.20
2017-11-27T03:55:46.183Z,81.00
2017-11-27T03:58:15.332Z,81.60
2017-11-27T04:00:43.709Z,80.60
2017-11-27T04:03:12.048Z,80.60
2017-11-27T04:05:41.161Z,80.80
2017-11-27T04:08:09.522Z,80.80
2017-11-27T04:10:38.645Z,81.30
2017-11-27T04:13:06.990Z,81.20
2017-11-27T04:15:36.178Z,81.20
2017-11-27T04:18:04.559Z,81.10
2017-11-27T04:20:33.692Z,81.30
2017-11-27T04:23:02.081Z,81.30
2017-11-27T04:25:30.439Z,81.10
2017-11-27T04:27:58.800Z,81.30
2017-11-27T04:30:28.021Z,81.10
2017-11-27T04:32:56.426Z,81.10
2017-11-27T04:35:24.772Z,80.70
2017-11-27T04:37:53.994Z,80.90
2017-11-27T04:40:22.379Z,81.20
2017-11-27T04:42:50.749Z,81.30
2017-11-27T04:45:19.209Z,81.60
2017-11-27T04:47:47.594Z,82.00
2017-11-27T04:50:15.985Z,82.70
2017-11-27T04:52:44.425Z,83.00
2017-11-27T04:55:12.766Z,82.70
2017-11-27T04:57:41.137Z,83.00
2017-11-27T05:00:09.597Z,82.80
2017-11-27T05:02:38.584Z,83.00
2017-11-27T05:05:07.008Z,83.10
2017-11-27T05:07:35.453Z,83.00
2017-11-27T05:10:03.903Z,83.00
2017-11-27T05:12:32.291Z,83.00
2017-11-27T05:15:01.459Z,82.90
2017-11-27T05:17:29.847Z,82.90
2017-11-27T05:19:58.250Z,82.60
2017-11-27T05:22:27.375Z,82.40
2017-11-27T05:24:55.729Z,82.30
2017-11-27T05:27:24.867Z,82.40
2017-11-27T05:29:53.248Z,82.40
2017-11-27T05:32:21.633Z,82.60
2017-11-27T05:34:49.991Z,82.80
2017-11-27T05:37:18.505Z,82.60
2017-11-27T05:39:46.958Z,82.80
2017-11-27T05:42:15.511Z,83.30
2017-11-27T05:44:43.905Z,83.10
2017-11-27T05:47:12.335Z,83.60
2017-11-27T05:49:40.731Z,83.90
2017-11-27T05:52:09.094Z,84.00
2017-11-27T05:54:37.489Z,83.80
2017-11-27T05:57:05.958Z,83.80
2017-11-27T05:59:34.326Z,83.90
2017-11-27T06:02:02.768Z,83.80
2017-11-27T06:04:31.130Z,83.60
2017-11-27T06:07:00.250Z,83.40
2017-11-27T06:09:28.608Z,83.40
2017-11-27T06:11:57.766Z,83.30
2017-11-27T06:14:26.113Z,83.20
2017-11-27T06:16:54.609Z,82.90
2017-11-27T06:19:22.997Z,83.10
2017-11-27T06:21:51.383Z,83.20
2017-11-27T06:24:19.749Z,83.10
2017-11-27T06:26:48.116Z,83.20
2017-11-27T06:29:17.487Z,83.30
2017-11-27T06:31:45.898Z,83.00
2017-11-27T06:34:14.390Z,82.90
2017-11-27T06:36:42.750Z,83.00
2017-11-27T06:39:11.093Z,84.00
2017-11-27T06:41:40.233Z,82.60
2017-11-27T06:44:08.586Z,82.50
2017-11-27T06:46:36.948Z,82.60
2017-11-27T06:49:06.058Z,82.20
2017-11-27T06:51:34.484Z,82.80
2017-11-27T06:54:02.812Z,82.90
2017-11-27T06:56:31.198Z,82.60
2017-11-27T06:59:00.304Z,83.00
2017-11-27T07:01:28.788Z,83.00
2017-11-27T07:03:57.146Z,83.10
2017-11-27T07:06:25.489Z,82.90
2017-11-27T07:08:53.886Z,82.90
2017-11-27T07:11:22.218Z,82.80
2017-11-27T07:13:50.577Z,82.90
2017-11-27T07:16:18.950Z,82.90
2017-11-27T07:18:48.028Z,82.90
2017-11-27T07:21:17.157Z,82.90
2017-11-27T07:23:45.487Z,82.80
2017-11-27T07:26:13.939Z,82.90
2017-11-27T07:28:42.307Z,82.50
2017-11-27T07:31:10.763Z,82.40
2017-11-27T07:33:39.114Z,82.40
2017-11-27T07:36:08.345Z,83.40
2017-11-27T07:38:42.489Z,82.60
2017-11-27T07:41:10.828Z,83.00
2017-11-27T07:43:39.217Z,83.70
2017-11-27T07:46:07.544Z,80.80
2017-11-27T07:48:35.865Z,80.40
2017-11-27T07:51:04.249Z,80.00
2017-11-27T07:53:32.609Z,80.20
2017-11-27T07:56:01.747Z,79.90
2017-11-27T07:58:30.206Z,79.90
2017-11-27T08:00:58.542Z,79.90
2017-11-27T08:03:27.004Z,79.70
2017-11-27T08:05:55.558Z,79.60
2017-11-27T08:08:23.924Z,79.50
2017-11-27T08:10:53.203Z,78.80
2017-11-27T08:13:22.350Z,79.30
2017-11-27T08:15:50.841Z,78.60
2017-11-27T08:18:19.847Z,78.40
2017-11-27T08:20:49.028Z,78.30
2017-11-27T08:23:17.353Z,78.30
2017-11-27T08:25:46.475Z,77.60
2017-11-27T08:28:14.806Z,77.50
2017-11-27T08:30:43.299Z,77.30
2017-11-27T08:33:11.624Z,77.20
2017-11-27T08:35:40.108Z,76.50
2017-11-27T08:38:08.537Z,76.50
2017-11-27T08:40:36.863Z,76.20
2017-11-27T08:43:05.230Z,75.90
2017-11-27T08:45:33.738Z,75.70
2017-11-27T08:48:02.065Z,75.40
2017-11-27T08:50:30.395Z,75.30
2017-11-27T08:52:58.770Z,75.30
2017-11-27T08:55:27.134Z,75.10
2017-11-27T08:57:55.489Z,74.90
2017-11-27T09:00:24.578Z,74.20
2017-11-27T09:02:53.709Z,74.00
2017-11-27T09:05:22.074Z,73.90
2017-11-27T09:07:50.421Z,73.60
2017-11-27T09:10:18.760Z,73.20
2017-11-27T09:12:47.077Z,73.20
2017-11-27T09:15:15.433Z,73.30
2017-11-27T09:17:43.766Z,73.30
2017-11-27T09:20:12.086Z,73.20
2017-11-27T09:22:40.417Z,73.30
2017-11-27T09:25:08.829Z,73.50
2017-11-27T09:27:37.228Z,73.60
2017-11-27T09:30:05.564Z,73.60
2017-11-27T09:32:33.915Z,73.80
2017-11-27T09:35:02.993Z,73.90
2017-11-27T09:37:31.335Z,74.00
2017-11-27T09:39:59.677Z,74.30
2017-11-27T09:42:28.808Z,75.20
2017-11-27T09:44:57.171Z,75.20
2017-11-27T09:47:25.497Z,75.30
2017-11-27T09:49:53.905Z,75.40
2017-11-27T09:52:23.189Z,76.50
2017-11-27T09:54:51.523Z,76.50
2017-11-27T09:57:19.853Z,76.30
2017-11-27T09:59:48.186Z,76.80
2017-11-27T10:02:16.553Z,76.30
2017-11-27T10:04:44.875Z,76.50
2017-11-27T10:07:13.924Z,76.50
2017-11-27T10:09:42.259Z,77.00
2017-11-27T10:12:10.698Z,77.40
2017-11-27T10:14:39.004Z,77.60
2017-11-27T10:17:07.349Z,77.70
2017-11-27T10:19:35.673Z,78.40
2017-11-27T10:22:04.001Z,78.00
2017-11-27T10:24:32.344Z,78.20
2017-11-27T10:27:01.450Z,78.80
2017-11-27T10:29:30.545Z,79.00
2017-11-27T10:32:00.298Z,79.40
2017-11-27T10:34:28.644Z,79.30
2017-11-27T10:36:56.965Z,79.70
2017-11-27T10:39:25.309Z,80.00
2017-11-27T10:41:53.693Z,80.00
2017-11-27T10:44:22.024Z,80.30
2017-11-27T10:46:50.374Z,80.50
2017-11-27T10:49:18.689Z,80.90
2017-11-27T10:51:47.012Z,80.80
2017-11-27T10:54:15.354Z,81.20
2017-11-27T10:56:44.904Z,81.90
2017-11-27T10:59:13.388Z,81.50
2017-11-27T11:01:41.683Z,82.00
2017-11-27T11:04:10.236Z,82.20
2017-11-27T11:06:38.601Z,82.90
2017-11-27T11:09:06.946Z,83.00
2017-11-27T11:11:35.276Z,83.10
2017-11-27T11:14:04.517Z,83.40
2017-11-27T11:16:32.966Z,83.40
2017-11-27T11:19:01.334Z,83.80
2017-11-27T11:21:29.666Z,83.90
2017-11-27T11:23:58.042Z,83.60
2017-11-27T11:26:26.387Z,84.10
2017-11-27T11:28:54.717Z,84.00
2017-11-27T11:31:23.824Z,84.90
2017-11-27T11:33:52.168Z,84.90
2017-11-27T11:36:21.350Z,84.70
2017-11-27T11:38:49.753Z,84.70
2017-11-27T11:41:18.066Z,85.00
2017-11-27T11:43:46.433Z,85.20
2017-11-27T11:46:15.508Z,85.40
2017-11-27T11:48:44.623Z,85.40
2017-11-27T11:51:13.775Z,86.00
2017-11-27T11:53:42.439Z,85.90
2017-11-27T11:56:10.807Z,86.20
2017-11-27T11:58:39.140Z,85.70
2017-11-27T12:01:07.681Z,86.10
2017-11-27T12:03:36.040Z,86.00
2017-11-27T12:06:04.400Z,85.90
2017-11-27T12:08:33.519Z,86.20
2017-11-27T12:11:01.906Z,86.20
2017-11-27T12:13:30.283Z,86.20
2017-11-27T12:15:58.649Z,86.50
2017-11-27T12:18:26.992Z,85.70
2017-11-27T12:20:55.408Z,85.80
2017-11-27T12:23:23.892Z,86.20
2017-11-27T12:25:52.223Z,85.80
2017-11-27T12:28:20.545Z,85.50
2017-11-27T12:30:48.937Z,85.20
2017-11-27T12:33:17.269Z,85.20
2017-11-27T12:35:45.748Z,85.00
2017-11-27T12:38:14.174Z,85.70
2017-11-27T12:40:42.540Z,85.60
2017-11-27T12:43:11.634Z,84.90
2017-11-27T12:45:40.018Z,84.80
2017-11-27T12:48:08.405Z,85.20
2017-11-27T12:50:36.742Z,85.40
2017-11-27T12:53:05.078Z,85.20
2017-11-27T12:55:33.412Z,85.50
2017-11-27T12:58:03.479Z,85.50
2017-11-27T13:00:31.834Z,85.50
2017-11-27T13:03:00.338Z,85.70
2017-11-27T13:05:28.673Z,85.50
2017-11-27T13:07:57.086Z,85.50
2017-11-27T13:10:25.434Z,85.40
2017-11-27T13:12:54.540Z,85.00
2017-11-27T13:15:23.663Z,85.10
2017-11-27T13:17:52.020Z,85.10
2017-11-27T13:20:21.121Z,84.80
2017-11-27T13:22:49.457Z,84.80
2017-11-27T13:25:17.824Z,84.80
2017-11-27T13:27:46.357Z,85.00
2017-11-27T13:30:14.677Z,85.00
2017-11-27T13:32:43.042Z,85.00
2017-11-27T13:35:11.358Z,84.70
2017-11-27T13:37:39.736Z,84.70
2017-11-27T13:40:08.063Z,84.40
2017-11-27T13:42:36.537Z,84.40
2017-11-27T13:45:04.957Z,84.60
2017-11-27T13:47:33.360Z,84.80
2017-11-27T13:50:01.749Z,84.70
2017-11-27T13:52:30.909Z,84.90
2017-11-27T13:54:59.269Z,84.80
2017-11-27T13:57:27.736Z,84.30
2017-11-27T13:59:56.119Z,84.40
2017-11-27T14:02:24.445Z,84.60
2017-11-27T14:04:53.225Z,84.40
2017-11-27T14:07:21.558Z,84.60
2017-11-27T14:09:49.902Z,84.70
2017-11-27T14:12:18.388Z,84.60
2017-11-27T14:14:46.702Z,85.20
2017-11-27T14:17:15.176Z,85.40
2017-11-27T14:19:43.565Z,85.20
2017-11-27T14:22:11.897Z,85.60
2017-11-27T14:24:40.306Z,85.50
2017-11-27T14:27:08.686Z,85.20
2017-11-27T14:29:37.778Z,85.50
2017-11-27T14:32:06.900Z,85.40
2017-11-27T14:34:35.259Z,85.30
2017-11-27T14:37:03.648Z,85.20
2017-11-27T14:39:32.069Z,84.90
2017-11-27T14:42:00.404Z,85.00
2017-11-27T14:44:28.765Z,85.00
2017-11-27T14:46:57.106Z,85.10
2017-11-27T14:49:25.423Z,85.20
2017-11-27T14:51:54.517Z,85.40
2017-11-27T14:54:22.850Z,85.40
2017-11-27T14:56:51.214Z,85.20
2017-11-27T14:59:19.648Z,85.00
2017-11-27T15:01:48.776Z,85.20
2017-11-27T15:04:17.113Z,85.10
2017-11-27T15:06:45.505Z,85.20
2017-11-27T15:09:14.609Z,85.30
2017-11-27T15:11:42.941Z,85.20
2017-11-27T15:14:11.278Z,85.20
2017-11-27T15:16:39.605Z,85.20
2017-11-27T15:19:07.965Z,85.40
2017-11-27T15:21:36.294Z,85.30
2017-11-27T15:24:05.381Z,85.70
2017-11-27T15:26:33.760Z,85.60
2017-11-27T15:29:02.911Z,86.30
2017-11-27T15:31:31.259Z,86.30
2017-11-27T15:33:59.646Z,86.30
2017-11-27T15:36:28.006Z,86.70
2017-11-27T15:38:57.099Z,88.00
2017-11-27T15:41:26.213Z,87.30
2017-11-27T15:43:54.549Z,87.30
2017-11-27T15:46:22.870Z,87.50
2017-11-27T15:48:51.226Z,87.70
2017-11-27T15:51:20.329Z,87.60
2017-11-27T15:53:49.466Z,88.10
2017-11-27T15:56:17.806Z,88.10
2017-11-27T15:58:46.918Z,88.00
2017-11-27T16:01:15.267Z,88.00
2017-11-27T16:03:43.694Z,88.00
2017-11-27T16:06:12.063Z,87.90
2017-11-27T16:08:40.499Z,88.20
2017-11-27T16:11:08.834Z,87.90
2017-11-27T16:13:37.353Z,88.00
2017-11-27T16:16:05.688Z,87.90
2017-11-27T16:18:34.023Z,87.90
2017-11-27T16:21:02.354Z,87.90
2017-11-27T16:23:30.699Z,87.90
2017-11-27T16:25:59.809Z,88.00
2017-11-27T16:28:28.151Z,88.00
2017-11-27T16:30:56.494Z,87.90
2017-11-27T16:33:24.858Z,87.70
2017-11-27T16:35:53.393Z,87.50
2017-11-27T16:38:21.697Z,87.50
2017-11-27T16:40:50.085Z,87.40
2017-11-27T16:43:18.495Z,87.60
2017-11-27T16:45:46.820Z,87.50
2017-11-27T16:48:15.934Z,87.40
2017-11-27T16:50:45.169Z,87.40
2017-11-27T16:53:13.516Z,87.40
2017-11-27T16:55:41.843Z,87.50
2017-11-27T16:58:10.309Z,87.50
2017-11-27T17:00:38.620Z,87.60
2017-11-27T17:03:07.748Z,88.00
2017-11-27T17:05:36.101Z,87.90
2017-11-27T17:08:05.443Z,89.10
2017-11-27T17:10:33.818Z,88.40
2017-11-27T17:13:02.143Z,88.90
2017-11-27T17:15:30.662Z,88.80
2017-11-27T17:17:59.750Z,89.10
2017-11-27T17:20:28.841Z,89.20
2017-11-27T17:22:57.992Z,89.30
2017-11-27T17:25:26.418Z,89.30
2017-11-27T17:27:54.765Z,89.50
2017-11-27T17:30:23.183Z,89.70
2017-11-27T17:32:51.702Z,89.80
2017-11-27T17:35:20.091Z,89.80
2017-11-27T17:37:48.522Z,90.00
2017-11-27T17:40:16.910Z,90.00
2017-11-27T17:42:46.068Z,90.30
2017-11-27T17:45:14.459Z,90.20
2017-11-27T17:47:42.895Z,90.30
2017-11-27T17:50:11.510Z,90.40
2017-11-27T17:52:39.903Z,90.40
2017-11-27T17:55:08.338Z,90.30
2017-11-27T17:57:36.715Z,90.30
2017-11-27T18:00:05.090Z,90.40
2017-11-27T18:02:33.631Z,90.30
2017-11-27T18:05:01.966Z,90.40
2017-11-27T18:07:30.324Z,90.50
2017-11-27T18:09:58.659Z,90.40
2017-11-27T18:12:27.090Z,90.40
2017-11-27T18:14:55.443Z,90.30
2017-11-27T18:17:23.807Z,90.20
2017-11-27T18:19:52.305Z,90.20
2017-11-27T18:22:20.618Z,90.10
2017-11-27T18:24:48.997Z,90.00
2017-11-27T18:27:17.373Z,90.00
2017-11-27T18:29:45.722Z,89.80
2017-11-27T18:32:14.825Z,89.60
2017-11-27T18:34:43.275Z,89.60
2017-11-27T18:37:11.620Z,89.80
2017-11-27T18:39:39.945Z,89.60
2017-11-27T18:42:09.076Z,89.70
2017-11-27T18:44:37.512Z,89.70
2017-11-27T18:47:05.871Z,89.90
2017-11-27T18:49:34.201Z,90.00
2017-11-27T18:52:02.561Z,90.40
2017-11-27T18:54:30.917Z,90.00
2017-11-27T18:56:59.245Z,90.10
2017-11-27T18:59:27.612Z,90.00
2017-11-27T19:01:55.948Z,90.00
2017-11-27T19:04:24.296Z,89.70
2017-11-27T19:06:52.640Z,89.40
2017-11-27T19:09:20.994Z,89.20
2017-11-27T19:11:49.412Z,89.20
2017-11-27T19:14:17.776Z,89.00
2017-11-27T19:16:46.995Z,89.10
2017-11-27T19:19:15.331Z,88.90
2017-11-27T19:21:43.680Z,89.00
2017-11-27T19:24:12.081Z,88.80
2017-11-27T19:26:40.500Z,88.60
2017-11-27T19:29:08.949Z,88.60
2017-11-27T19:31:37.321Z,88.80
2017-11-27T19:34:05.854Z,88.80
2017-11-27T19:36:34.298Z,88.90
2017-11-27T19:39:02.720Z,88.80
2017-11-27T19:41:31.467Z,88.90
2017-11-27T19:43:59.784Z,88.50
2017-11-27T19:46:28.173Z,88.80
2017-11-27T19:48:56.492Z,88.90
2017-11-27T19:51:24.878Z,89.10
2017-11-27T19:53:53.205Z,89.10
2017-11-27T19:56:22.553Z,89.40
2017-11-27T19:58:50.872Z,89.90
2017-11-27T20:01:19.254Z,90.00
2017-11-27T20:03:47.640Z,90.10
2017-11-27T20:06:15.984Z,90.30
2017-11-27T20:08:44.374Z,90.40
2017-11-27T20:11:12.871Z,91.00
2017-11-27T20:13:41.950Z,90.80
2017-11-27T20:16:10.405Z,90.80
2017-11-27T20:18:38.718Z,91.00
2017-11-27T20:21:07.123Z,91.20
2017-11-27T20:23:35.559Z,91.40
2017-11-27T20:26:04.721Z,91.80
2017-11-27T20:28:33.036Z,91.80
2017-11-27T20:31:02.305Z,91.80
2017-11-27T20:33:30.695Z,91.80
2017-11-27T20:35:59.214Z,92.00
2017-11-27T20:38:27.596Z,92.10
2017-11-27T20:40:56.691Z,92.30
2017-11-27T20:43:25.326Z,92.30
2017-11-27T20:45:53.718Z,92.20
2017-11-27T20:48:22.816Z,92.20
2017-11-27T20:50:51.651Z,92.30
2017-11-27T20:53:20.584Z,92.20
2017-11-27T20:55:48.979Z,92.20
2017-11-27T20:58:17.317Z,92.20
2017-11-27T21:00:45.701Z,92.20
2017-11-27T21:03:14.153Z,92.30
2017-11-27T21:05:42.523Z,92.30
2017-11-27T21:08:11.631Z,92.40
2017-11-27T21:10:40.035Z,92.40
2017-11-27T21:13:08.753Z,92.50
2017-11-27T21:15:38.422Z,92.60
2017-11-27T21:18:06.913Z,92.60
2017-11-27T21:20:35.280Z,92.70
2017-11-27T21:23:03.644Z,92.70
2017-11-27T21:25:32.737Z,92.50
2017-11-27T21:28:01.076Z,92.50
2017-11-27T21:30:29.415Z,92.50
2017-11-27T21:32:57.759Z,92.30
2017-11-27T21:35:26.183Z,92.30
2017-11-27T21:37:54.497Z,92.60
2017-11-27T21:40:22.862Z,91.80
2017-11-27T21:42:51.224Z,91.20
2017-11-27T21:45:19.645Z,91.00
2017-11-27T21:47:48.017Z,90.70
2017-11-27T21:50:16.613Z,90.50
2017-11-27T21:52:45.171Z,90.50
2017-11-27T21:55:13.492Z,90.70
2017-11-27T21:57:42.838Z,90.50
2017-11-27T22:00:11.184Z,90.50
2017-11-27T22:02:39.523Z,90.20
2017-11-27T22:05:08.037Z,89.80
2017-11-27T22:07:37.132Z,89.80
2017-11-27T22:10:05.627Z,89.80
2017-11-27T22:12:34.041Z,89.90
2017-11-27T22:15:02.707Z,89.30
2017-11-27T22:17:31.060Z,89.90
2017-11-27T22:19:59.386Z,89.70
2017-11-27T22:22:27.834Z,89.40
2017-11-27T22:24:56.171Z,89.90
2017-11-27T22:27:25.293Z,90.20
2017-11-27T22:29:53.669Z,89.70
2017-11-27T22:32:22.421Z,89.70
2017-11-27T22:34:50.798Z,89.60
2017-11-27T22:37:19.120Z,89.60
2017-11-27T22:39:47.458Z,89.40
2017-11-27T22:42:15.913Z,89.40
2017-11-27T22:44:44.317Z,89.20
2017-11-27T22:47:12.645Z,89.30
2017-11-27T22:49:41.035Z,89.20
2017-11-27T22:52:09.355Z,89.20
2017-11-27T22:54:37.698Z,89.20
2017-11-27T22:57:06.034Z,88.50
2017-11-27T22:59:34.462Z,87.60
2017-11-27T23:02:02.793Z,87.50
2017-11-27T23:04:31.975Z,87.00
2017-11-27T23:07:00.301Z,87.00
2017-11-27T23:09:28.629Z,86.70
2017-11-27T23:11:56.966Z,87.40
2017-11-27T23:14:25.301Z,87.30
2017-11-27T23:16:54.457Z,87.80
2017-11-27T23:19:22.824Z,87.60
2017-11-27T23:21:51.160Z,88.00
2017-11-27T23:24:19.649Z,88.50
2017-11-27T23:26:48.737Z,89.20
2017-11-27T23:29:17.838Z,89.20
2017-11-27T23:31:47.012Z,89.60
2017-11-27T23:34:15.351Z,89.50
2017-11-27T23:36:43.822Z,89.40
2017-11-27T23:39:12.154Z,89.40
2017-11-27T23:41:40.509Z,89.50
2017-11-27T23:44:08.829Z,89.80
2017-11-27T23:46:37.961Z,90.20
2017-11-27T23:49:06.370Z,90.10
2017-11-27T23:51:34.742Z,90.20
2017-11-27T23:54:03.126Z,90.30
2017-11-27T23:56:31.469Z,90.60
2017-11-27T23:58:59.841Z,90.90
